Time;durP1;ratioP1;P1;durP2;ratioP2;P2;SDS_P1;SDS_P2;PMS_P1;PMS_P2;Temp;Humidity;BMP_temperature;BMP_pressure;BME280_temperature;BME280_humidity;BME280_pressure;Samples;Min_cycle;Max_cycle;Signal;HPM_P1;HPM_P2
2022/04/15 00:00:41;;;;;;;6.47;4.40;;;;;;;12.08;41.53;96732.54;1654672;87;21054;-80
2022/04/15 00:03:07;;;;;;;6.78;4.08;;;;;;;12.14;40.89;96736.52;1650807;87;21042;-80
2022/04/15 00:05:35;;;;;;;7.55;4.60;;;;;;;12.22;41.09;96731.22;1646527;87;21099;-80
2022/04/15 00:08:04;;;;;;;6.30;4.22;;;;;;;12.24;41.29;96733.63;1628700;87;21373;-80
2022/04/15 00:10:30;;;;;;;8.25;5.20;;;;;;;12.27;41.55;96733.26;1611469;89;21357;-80
2022/04/15 00:12:56;;;;;;;6.75;4.53;;;;;;;12.33;40.62;96741.14;1644703;87;21015;-81
2022/04/15 00:15:22;;;;;;;7.67;4.50;;;;;;;12.45;40.75;96735.45;1645533;87;21115;-80
2022/04/15 00:17:48;;;;;;;6.10;4.08;;;;;;;12.50;41.13;96737.81;1645186;87;21426;-80
2022/04/15 00:20:14;;;;;;;7.17;4.80;;;;;;;12.53;41.27;96740.56;1645398;87;21002;-80
2022/04/15 00:22:40;;;;;;;8.20;5.17;;;;;;;12.54;41.63;96738.27;1645229;87;21057;-80
2022/04/15 00:25:07;;;;;;;8.63;5.67;;;;;;;12.56;42.36;96746.70;1645147;87;21372;-80
2022/04/15 00:27:34;;;;;;;10.88;7.20;;;;;;;12.56;42.63;96742.30;1624696;87;21002;-80
2022/04/15 00:30:00;;;;;;;12.28;7.40;;;;;;;12.54;43.40;96737.77;1645382;87;21030;-80
2022/04/15 00:32:27;;;;;;;10.85;6.72;;;;;;;12.53;43.55;96737.47;1645206;87;20963;-80
2022/04/15 00:34:53;;;;;;;9.93;7.05;;;;;;;12.54;44.47;96743.48;1645454;87;20994;-80
2022/04/15 00:37:19;;;;;;;11.73;8.05;;;;;;;12.54;44.59;96747.39;1645248;87;21007;-80
2022/04/15 00:39:47;;;;;;;11.55;8.20;;;;;;;12.51;44.96;96737.31;1645500;87;21007;-80
2022/04/15 00:42:14;;;;;;;12.63;8.73;;;;;;;12.51;45.41;96738.62;1645441;87;21002;-80
2022/04/15 00:44:40;;;;;;;12.37;8.63;;;;;;;12.51;45.75;96740.73;1627308;88;21020;-80
2022/04/15 00:47:11;;;;;;;15.30;10.38;;;;;;;12.50;46.20;96733.90;1644793;87;21330;-80
2022/04/15 00:49:38;;;;;;;13.22;9.35;;;;;;;12.50;47.32;96735.70;1644008;87;21178;-80
2022/04/15 00:52:04;;;;;;;13.38;9.95;;;;;;;12.50;47.42;96735.20;1644909;87;21002;-81
2022/04/15 00:54:30;;;;;;;15.08;9.70;;;;;;;12.50;47.71;96735.20;1645320;87;21373;-80
2022/04/15 00:56:58;;;;;;;13.30;9.30;;;;;;;12.50;48.16;96737.00;1627183;88;21056;-80
2022/04/15 00:59:24;;;;;;;12.53;10.32;;;;;;;12.47;48.96;96737.38;1645330;87;21433;-80
2022/04/15 01:01:49;;;;;;;15.05;11.15;;;;;;;12.44;48.68;96730.73;1644993;87;21018;-80
2022/04/15 01:04:15;;;;;;;13.83;9.78;;;;;;;12.43;49.27;96730.92;1645253;87;21059;-80
2022/04/15 01:06:41;;;;;;;14.90;10.50;;;;;;;12.40;49.18;96733.41;1629562;87;21037;-80
2022/04/15 01:09:07;;;;;;;15.72;10.43;;;;;;;12.37;49.54;96735.09;1654528;87;21030;-80
2022/04/15 01:11:32;;;;;;;15.13;11.30;;;;;;;12.32;49.84;96732.20;1649620;85;21070;-80
2022/04/15 01:14:00;;;;;;;14.50;11.22;;;;;;;12.29;50.15;96726.06;1653895;87;21061;-80
2022/04/15 01:16:27;;;;;;;16.55;11.22;;;;;;;12.25;50.36;96721.72;1655010;87;21033;-80
2022/04/15 01:18:53;;;;;;;16.42;11.63;;;;;;;12.20;51.17;96722.78;1654653;87;22310;-80
2022/04/15 01:21:18;;;;;;;18.17;12.23;;;;;;;12.14;51.88;96727.39;1654685;87;21050;-80
2022/04/15 01:23:44;;;;;;;15.10;11.20;;;;;;;12.08;51.49;96731.23;1654663;87;21089;-80
2022/04/15 01:26:10;;;;;;;17.27;11.12;;;;;;;12.06;52.20;96724.91;1654848;87;21048;-80
2022/04/15 01:28:35;;;;;;;13.05;9.55;;;;;;;11.98;52.59;96728.41;1654108;87;21468;-80
2022/04/15 01:31:01;;;;;;;17.52;11.83;;;;;;;11.92;53.51;96725.73;1654656;87;21065;-80
2022/04/15 01:33:27;;;;;;;14.98;11.45;;;;;;;11.88;52.88;96725.80;1654651;87;21081;-80
2022/04/15 01:35:53;;;;;;;19.25;12.75;;;;;;;11.84;53.75;96725.33;1654917;87;21421;-80
2022/04/15 01:38:18;;;;;;;16.32;12.45;;;;;;;11.77;53.76;96724.91;1654272;87;21109;-80
2022/04/15 01:40:44;;;;;;;14.15;11.40;;;;;;;11.72;54.06;96727.56;1654878;87;21030;-80
2022/04/15 01:43:10;;;;;;;13.85;10.35;;;;;;;11.70;54.18;96732.61;1654052;87;21090;-80
2022/04/15 01:45:36;;;;;;;16.17;11.65;;;;;;;11.67;54.56;96735.09;1654770;87;20959;-81
2022/04/15 01:48:02;;;;;;;15.40;10.58;;;;;;;11.66;54.77;96739.98;1654512;87;21424;-80
2022/04/15 01:50:28;;;;;;;15.85;11.10;;;;;;;11.61;54.99;96737.11;1653799;87;21087;-80
2022/04/15 01:52:56;;;;;;;15.65;11.45;;;;;;;11.57;55.19;96737.16;1652148;87;21026;-80
2022/04/15 01:55:22;;;;;;;15.50;12.37;;;;;;;11.54;55.28;96740.59;1654548;87;21018;-80
2022/04/15 01:57:47;;;;;;;17.05;12.18;;;;;;;11.52;54.87;96747.78;1654637;87;20967;-80
2022/04/15 02:00:13;;;;;;;21.45;14.50;;;;;;;11.51;55.77;96750.06;1654539;87;21002;-81
2022/04/15 02:02:39;;;;;;;21.00;15.28;;;;;;;11.47;56.06;96745.72;1654746;87;21029;-80
2022/04/15 02:05:07;;;;;;;22.07;15.23;;;;;;;11.45;56.04;96743.79;1653622;87;20974;-80
2022/04/15 02:07:32;;;;;;;20.45;13.53;;;;;;;11.43;56.21;96742.67;1645062;87;21083;-80
2022/04/15 02:09:58;;;;;;;16.87;12.33;;;;;;;11.41;56.51;96737.33;1645102;87;21081;-80
2022/04/15 02:12:24;;;;;;;20.08;13.62;;;;;;;11.40;56.62;96744.33;1638235;87;21425;-80
2022/04/15 02:14:50;;;;;;;15.90;12.55;;;;;;;11.38;56.38;96735.87;1631635;87;21405;-80
2022/04/15 02:17:17;;;;;;;18.82;14.20;;;;;;;11.36;56.67;96735.73;1641035;87;21059;-80
2022/04/15 02:19:43;;;;;;;21.82;15.03;;;;;;;11.32;57.38;96740.49;1621861;87;21022;-80
2022/04/15 02:22:08;;;;;;;22.93;16.62;;;;;;;11.29;57.26;96748.66;1625198;87;21353;-80
2022/04/15 02:24:34;;;;;;;24.72;16.02;;;;;;;11.28;57.44;96743.63;1640785;87;20959;-80
2022/04/15 02:27:00;;;;;;;22.50;15.18;;;;;;;11.27;57.82;96740.72;1640983;87;20955;-80
2022/04/15 02:29:26;;;;;;;20.23;15.03;;;;;;;11.26;57.84;96738.61;1641440;87;20983;-79
2022/04/15 02:31:52;;;;;;;17.50;13.38;;;;;;;11.25;57.69;96739.59;1636844;87;21109;-80
2022/04/15 02:34:18;;;;;;;18.92;14.58;;;;;;;11.23;57.97;96733.77;1642481;87;21045;-80
2022/04/15 02:36:43;;;;;;;16.75;13.38;;;;;;;11.21;58.21;96729.20;1644167;87;20943;-80
2022/04/15 02:39:10;;;;;;;19.27;13.35;;;;;;;11.19;58.05;96725.98;1640627;87;21085;-80
2022/04/15 02:41:40;;;;;;;17.60;12.63;;;;;;;11.18;58.82;96725.66;1640816;87;21429;-80
2022/04/15 02:44:08;;;;;;;19.95;14.73;;;;;;;11.17;58.30;96731.85;1640788;87;21031;-79
2022/04/15 02:46:35;;;;;;;20.48;16.37;;;;;;;11.16;58.80;96738.53;1617917;87;21063;-80
2022/04/15 02:49:02;;;;;;;22.93;16.87;;;;;;;11.13;59.13;96741.00;1622645;87;21014;-80
2022/04/15 02:51:29;;;;;;;23.35;16.93;;;;;;;11.11;59.31;96741.67;1635258;87;21354;-80
2022/04/15 02:53:54;;;;;;;21.10;16.25;;;;;;;11.09;59.31;96749.66;1640783;87;21038;-80
2022/04/15 02:56:20;;;;;;;23.40;15.72;;;;;;;11.12;59.47;96744.59;1640958;87;21020;-80
2022/04/15 02:58:46;;;;;;;21.85;16.40;;;;;;;11.15;59.33;96744.72;1640575;87;21417;-80
2022/04/15 03:01:11;;;;;;;21.97;17.42;;;;;;;11.13;59.53;96744.41;1643281;87;21002;-80
2022/04/15 03:03:37;;;;;;;22.90;17.32;;;;;;;11.12;59.78;96748.48;1645133;87;21038;-80
2022/04/15 03:06:03;;;;;;;23.85;17.75;;;;;;;11.14;59.79;96762.13;1645262;87;21429;-80
2022/04/15 03:08:30;;;;;;;22.58;17.15;;;;;;;11.18;59.77;96756.07;1641170;87;21095;-80
2022/04/15 03:10:57;;;;;;;21.33;15.65;;;;;;;11.19;59.61;96749.88;1640936;87;20974;-80
2022/04/15 03:13:24;;;;;;;19.95;15.20;;;;;;;11.21;60.02;96742.70;1640999;87;21015;-80
2022/04/15 03:15:50;;;;;;;20.62;16.32;;;;;;;11.19;59.98;96740.78;1640993;87;20966;-80
2022/04/15 03:18:15;;;;;;;22.22;16.75;;;;;;;11.16;60.21;96744.55;1640909;87;22028;-80
2022/04/15 03:20:42;;;;;;;21.65;16.82;;;;;;;11.14;60.23;96754.31;1641430;86;21015;-80
2022/04/15 03:23:09;;;;;;;22.20;17.85;;;;;;;11.14;60.65;96760.82;1644968;87;21419;-80
2022/04/15 03:25:35;;;;;;;20.65;17.52;;;;;;;11.14;60.50;96762.13;1645237;87;21026;-80
2022/04/15 03:28:00;;;;;;;22.52;17.23;;;;;;;11.16;60.81;96766.65;1643655;87;20995;-80
2022/04/15 03:30:27;;;;;;;20.70;16.95;;;;;;;11.16;60.86;96770.55;1617629;89;21417;-80
2022/04/15 03:32:53;;;;;;;22.67;16.82;;;;;;;11.17;61.04;96772.17;1642626;87;21014;-80
2022/04/15 03:35:21;;;;;;;22.25;19.27;;;;;;;11.17;61.41;96787.77;1645242;87;21343;-80
2022/04/15 03:37:51;;;;;;;22.15;17.70;;;;;;;11.18;61.48;96800.28;1641531;87;21019;-80
2022/04/15 03:40:17;;;;;;;23.22;19.25;;;;;;;11.18;61.82;96795.08;1641083;87;21093;-80
2022/04/15 03:42:47;;;;;;;23.73;19.07;;;;;;;11.18;61.80;96796.38;1641046;87;21015;-80
2022/04/15 03:45:18;;;;;;;25.15;18.57;;;;;;;11.21;62.25;96789.03;1641235;87;20971;-80
2022/04/15 03:47:42;;;;;;;24.65;18.02;;;;;;;11.25;61.94;96790.81;1641183;87;20983;-80
2022/04/15 03:50:11;;;;;;;21.23;17.80;;;;;;;11.29;61.98;96799.87;1641340;87;21010;-80
2022/04/15 03:52:42;;;;;;;21.82;17.70;;;;;;;11.34;62.08;96798.84;1645433;87;21042;-80
2022/04/15 03:55:10;;;;;;;22.85;17.70;;;;;;;11.37;62.22;96799.30;1645153;87;21043;-80
2022/04/15 03:57:37;;;;;;;21.82;17.50;;;;;;;11.36;62.16;96793.78;1644334;87;21304;-78
2022/04/15 04:00:08;;;;;;;25.27;18.17;;;;;;;11.38;62.39;96789.70;1645126;87;20987;-78
2022/04/15 04:02:34;;;;;;;19.17;16.35;;;;;;;11.38;62.77;96793.11;1646638;87;20971;-78
2022/04/15 04:05:00;;;;;;;21.57;18.12;;;;;;;11.37;62.61;96796.70;1627541;87;21373;-78
2022/04/15 04:07:26;;;;;;;22.13;17.65;;;;;;;11.37;62.78;96796.70;1617501;89;21106;-78
2022/04/15 04:09:51;;;;;;;26.17;19.73;;;;;;;11.36;63.07;96799.47;1627063;87;20999;-78
2022/04/15 04:12:19;;;;;;;22.98;17.77;;;;;;;11.34;62.99;96798.35;1642439;87;21078;-78
2022/04/15 04:14:45;;;;;;;21.30;17.70;;;;;;;11.33;63.37;96796.73;1645267;87;21345;-78
2022/04/15 04:17:10;;;;;;;26.95;19.07;;;;;;;11.33;63.62;96804.55;1645071;87;21085;-78
2022/04/15 04:19:36;;;;;;;22.42;18.75;;;;;;;11.34;63.71;96791.85;1643142;86;21041;-78
2022/04/15 04:22:03;;;;;;;26.45;18.23;;;;;;;11.36;63.78;96788.58;1626252;87;20983;-78
2022/04/15 04:24:31;;;;;;;23.98;19.85;;;;;;;11.41;63.56;96793.27;1639946;87;21429;-78
2022/04/15 04:26:56;;;;;;;20.90;18.60;;;;;;;11.43;63.85;96795.20;1634664;87;21010;-78
2022/04/15 04:29:22;;;;;;;21.57;17.85;;;;;;;11.43;64.43;96796.50;1641103;87;20943;-78
2022/04/15 04:31:48;;;;;;;20.62;16.60;;;;;;;11.41;64.28;96800.59;1638751;87;21412;-78
2022/04/15 04:34:14;;;;;;;24.07;18.32;;;;;;;11.40;64.59;96805.47;1641906;87;21057;-78
2022/04/15 04:36:40;;;;;;;21.70;17.55;;;;;;;11.38;64.58;96808.72;1632078;87;20990;-78
2022/04/15 04:39:08;;;;;;;22.80;18.37;;;;;;;11.38;64.79;96815.22;1639478;87;22058;-78
2022/04/15 04:41:34;;;;;;;23.73;17.85;;;;;;;11.36;65.17;96817.19;1642434;87;21003;-78
2022/04/15 04:44:00;;;;;;;19.73;17.35;;;;;;;11.32;65.17;96823.74;1645016;87;21050;-78
2022/04/15 04:46:27;;;;;;;21.60;17.67;;;;;;;11.31;65.48;96822.62;1630786;87;21034;-78
2022/04/15 04:48:52;;;;;;;19.02;16.50;;;;;;;11.31;65.45;96823.42;1618756;88;20997;-78
2022/04/15 04:51:18;;;;;;;20.35;16.90;;;;;;;11.34;65.62;96826.16;1621482;87;21081;-78
2022/04/15 04:53:44;;;;;;;20.27;16.42;;;;;;;11.37;65.74;96827.11;1636247;87;21140;-78
2022/04/15 04:56:09;;;;;;;23.18;17.87;;;;;;;11.39;65.64;96827.77;1629305;87;21019;-78
2022/04/15 04:58:35;;;;;;;21.97;16.42;;;;;;;11.41;65.94;96837.50;1624435;87;20994;-78
2022/04/15 05:01:01;;;;;;;19.75;15.98;;;;;;;11.42;65.90;96847.73;1617270;87;21038;-78
2022/04/15 05:03:26;;;;;;;18.60;16.67;;;;;;;11.41;66.29;96845.31;1644870;87;21360;-78
2022/04/15 05:05:52;;;;;;;23.35;17.15;;;;;;;11.39;66.31;96855.09;1644132;87;21034;-78
2022/04/15 05:08:18;;;;;;;20.27;17.42;;;;;;;11.37;66.58;96863.04;1631523;87;20995;-78
2022/04/15 05:10:44;;;;;;;21.02;16.93;;;;;;;11.37;66.91;96857.03;1628011;87;21002;-78
2022/04/15 05:13:09;;;;;;;22.52;16.30;;;;;;;11.34;66.73;96852.98;1640899;87;20987;-78
2022/04/15 05:15:35;;;;;;;23.47;18.70;;;;;;;11.36;66.87;96847.11;1639653;87;20952;-78
2022/04/15 05:18:01;;;;;;;24.50;21.87;;;;;;;11.37;67.36;96839.63;1617126;87;21059;-78
2022/04/15 05:20:29;;;;;;;24.35;19.90;;;;;;;11.29;68.11;96813.69;1617378;87;21398;-78
2022/04/15 05:22:55;;;;;;;31.80;28.70;;;;;;;11.23;68.80;96797.50;1597203;89;21058;-78
2022/04/15 05:25:20;;;;;;;28.95;26.00;;;;;;;11.17;69.46;96794.77;1625752;87;21011;-78
2022/04/15 05:27:46;;;;;;;30.20;26.85;;;;;;;11.12;69.61;96807.00;1621601;87;21011;-80
2022/04/15 05:30:12;;;;;;;26.55;20.27;;;;;;;11.09;70.43;96808.16;1629180;87;21006;-80
2022/04/15 05:32:38;;;;;;;23.73;20.97;;;;;;;11.06;70.93;96807.68;1642469;87;20955;-80
2022/04/15 05:35:05;;;;;;;19.50;17.25;;;;;;;10.99;71.34;96812.78;1639611;87;20979;-81
2022/04/15 05:37:30;;;;;;;24.15;21.55;;;;;;;10.93;72.22;96810.08;1627525;87;21040;-80
2022/04/15 05:39:56;;;;;;;25.75;21.77;;;;;;;10.80;72.90;96810.15;1641314;87;21502;-80
2022/04/15 05:42:22;;;;;;;26.77;23.65;;;;;;;10.71;73.91;96796.88;1644727;87;20952;-80
2022/04/15 05:44:48;;;;;;;29.20;24.87;;;;;;;10.66;73.75;96781.00;1620757;87;21018;-80
2022/04/15 05:47:15;;;;;;;27.95;22.27;;;;;;;10.68;74.51;96776.92;1630497;87;20983;-81
2022/04/15 05:49:41;;;;;;;29.32;26.20;;;;;;;10.69;74.22;96776.75;1616266;87;21003;-81
2022/04/15 05:52:07;;;;;;;21.52;17.95;;;;;;;10.75;74.73;96777.87;1614028;89;21021;-80
2022/04/15 05:54:32;;;;;;;18.27;13.20;;;;;;;10.76;74.63;96779.48;1613874;87;21452;-80
2022/04/15 05:56:58;;;;;;;19.35;15.72;;;;;;;10.74;74.59;96782.26;1631885;86;21066;-79
2022/04/15 05:59:24;;;;;;;22.27;17.17;;;;;;;10.75;74.99;96788.27;1648410;86;20967;-79
2022/04/15 06:01:51;;;;;;;27.27;23.25;;;;;;;10.78;75.33;96795.22;1637535;86;20978;-79
2022/04/15 06:04:17;;;;;;;25.27;19.80;;;;;;;10.74;75.69;96804.34;1644964;87;21042;-79
2022/04/15 06:06:43;;;;;;;25.62;19.52;;;;;;;10.76;75.57;96810.67;1617864;87;21043;-80
2022/04/15 06:09:10;;;;;;;20.85;17.30;;;;;;;10.78;76.17;96816.02;1611846;87;21133;-80
2022/04/15 06:11:37;;;;;;;22.20;16.90;;;;;;;10.77;76.23;96823.98;1618022;86;21099;-80
2022/04/15 06:14:06;;;;;;;24.92;19.55;;;;;;;10.81;76.65;96816.16;1614915;86;20975;-80
2022/04/15 06:16:33;;;;;;;23.57;18.40;;;;;;;10.90;76.38;96811.23;1618095;87;20975;-80
2022/04/15 06:18:59;;;;;;;22.58;18.82;;;;;;;10.95;76.88;96808.11;1617591;87;21489;-79
2022/04/15 06:21:25;;;;;;;20.10;16.12;;;;;;;10.94;76.86;96794.79;1617124;86;21023;-79
2022/04/15 06:23:51;;;;;;;19.57;17.50;;;;;;;10.95;76.84;96788.11;1621474;86;21002;-79
2022/04/15 06:26:16;;;;;;;17.82;14.33;;;;;;;10.99;76.71;96789.88;1620614;86;21360;-79
2022/04/15 06:28:42;;;;;;;14.38;12.23;;;;;;;11.02;77.23;96790.81;1622967;86;20998;-79
2022/04/15 06:31:08;;;;;;;19.98;17.17;;;;;;;11.07;77.00;96791.93;1623553;86;21031;-79
2022/04/15 06:33:33;;;;;;;22.35;18.57;;;;;;;11.15;77.04;96793.64;1624064;86;20951;-80
2022/04/15 06:36:00;;;;;;;23.73;20.10;;;;;;;11.17;76.67;96803.38;1618009;87;20987;-80
2022/04/15 06:38:26;;;;;;;23.90;20.82;;;;;;;11.17;76.34;96804.68;1613775;87;21046;-80
2022/04/15 06:40:51;;;;;;;25.30;20.77;;;;;;;11.23;77.18;96803.19;1613610;87;21015;-80
2022/04/15 06:43:17;;;;;;;25.25;21.27;;;;;;;11.24;77.37;96807.41;1622987;86;21389;-80
2022/04/15 06:45:43;;;;;;;26.55;20.10;;;;;;;11.28;77.59;96805.57;1615902;86;21366;-80
2022/04/15 06:48:09;;;;;;;23.02;18.52;;;;;;;11.37;77.73;96812.80;1613621;87;21039;-79
2022/04/15 06:50:35;;;;;;;24.80;20.50;;;;;;;11.40;77.83;96806.77;1619888;86;21066;-80
2022/04/15 06:53:01;;;;;;;22.17;19.77;;;;;;;11.34;77.78;96806.16;1614840;87;21039;-80
2022/04/15 06:55:27;;;;;;;25.50;20.97;;;;;;;11.32;77.95;96813.83;1596346;87;21023;-79
2022/04/15 06:57:53;;;;;;;23.50;19.02;;;;;;;11.34;78.28;96815.27;1620417;86;20947;-80
2022/04/15 07:00:19;;;;;;;21.87;18.95;;;;;;;11.38;78.18;96828.72;1618961;86;21419;-80
2022/04/15 07:02:44;;;;;;;27.00;21.87;;;;;;;11.40;78.19;96828.89;1648251;86;21106;-80
2022/04/15 07:05:10;;;;;;;24.95;21.52;;;;;;;11.43;78.01;96835.53;1627704;87;20990;-80
2022/04/15 07:07:38;;;;;;;25.43;22.60;;;;;;;11.44;78.04;96822.84;1613295;87;21030;-80
2022/04/15 07:10:06;;;;;;;27.05;24.02;;;;;;;11.40;77.79;96822.39;1612894;89;21110;-80
2022/04/15 07:12:32;;;;;;;32.53;27.73;;;;;;;11.42;78.38;96815.21;1648557;86;21040;-80
2022/04/15 07:14:59;;;;;;;27.48;24.25;;;;;;;11.47;78.44;96816.47;1662887;86;21454;-79
2022/04/15 07:17:25;;;;;;;30.80;26.65;;;;;;;11.49;78.31;96823.59;1640140;86;21106;-80
2022/04/15 07:19:51;;;;;;;29.20;26.07;;;;;;;11.49;78.38;96819.20;1616915;87;20979;-79
2022/04/15 07:22:18;;;;;;;29.15;25.50;;;;;;;11.53;78.76;96823.55;1641889;86;20940;-79
2022/04/15 07:24:45;;;;;;;26.65;23.75;;;;;;;11.57;78.56;96824.84;1623301;87;21050;-79
2022/04/15 07:27:10;;;;;;;27.93;24.92;;;;;;;11.54;78.27;96831.19;1630361;86;21416;-79
2022/04/15 07:29:36;;;;;;;37.85;31.40;;;;;;;11.55;78.94;96834.13;1624996;87;21008;-80
2022/04/15 07:32:02;;;;;;;29.50;25.17;;;;;;;11.59;79.29;96831.48;1631929;86;21036;-81
2022/04/15 07:34:29;;;;;;;28.95;25.80;;;;;;;11.68;79.57;96838.71;1638990;86;21477;-79
2022/04/15 07:36:55;;;;;;;30.60;27.37;;;;;;;11.72;79.36;96840.80;1639160;87;21118;-78
2022/04/15 07:39:21;;;;;;;29.37;26.20;;;;;;;11.75;79.26;96842.23;1639005;87;21063;-78
2022/04/15 07:41:47;;;;;;;30.32;27.00;;;;;;;11.79;79.22;96841.41;1625436;86;21583;-78
2022/04/15 07:44:13;;;;;;;31.87;28.00;;;;;;;11.83;79.01;96842.67;1642179;86;21013;-79
2022/04/15 07:46:41;;;;;;;30.92;26.55;;;;;;;11.87;78.95;96843.42;1653576;86;21425;-78
2022/04/15 07:49:07;;;;;;;30.68;26.10;;;;;;;11.90;79.12;96843.59;1625563;86;20965;-78
2022/04/15 07:51:33;;;;;;;28.87;25.77;;;;;;;11.89;79.24;96849.30;1626300;86;20995;-78
2022/04/15 07:54:00;;;;;;;28.02;25.02;;;;;;;11.89;79.01;96838.07;1635178;86;21055;-78
2022/04/15 07:56:25;;;;;;;27.80;24.63;;;;;;;11.89;78.90;96843.28;1621615;86;21020;-78
2022/04/15 07:58:51;;;;;;;27.32;24.43;;;;;;;11.91;78.89;96843.91;1611684;89;21310;-78
2022/04/15 08:01:18;;;;;;;27.50;22.93;;;;;;;11.87;78.82;96842.12;1612909;89;20995;-78
2022/04/15 08:03:45;;;;;;;25.20;22.50;;;;;;;11.81;78.69;96848.55;1614651;86;21007;-78
2022/04/15 08:06:11;;;;;;;27.20;22.85;;;;;;;11.71;78.90;96847.00;1627093;86;21422;-78
2022/04/15 08:08:36;;;;;;;27.07;23.55;;;;;;;11.66;79.04;96850.60;1633629;87;21108;-78
2022/04/15 08:11:03;;;;;;;27.20;22.22;;;;;;;11.70;79.16;96853.66;1637922;88;21039;-78
2022/04/15 08:13:29;;;;;;;25.17;22.42;;;;;;;11.73;79.37;96856.73;1630534;86;21054;-78
2022/04/15 08:15:55;;;;;;;23.00;20.05;;;;;;;11.77;79.36;96856.38;1624557;86;21051;-79
2022/04/15 08:18:21;;;;;;;23.18;20.70;;;;;;;11.75;78.97;96855.75;1624737;86;21388;-78
2022/04/15 08:20:47;;;;;;;25.88;21.65;;;;;;;11.72;78.96;96859.52;1618478;88;21004;-78
2022/04/15 08:23:14;;;;;;;32.45;28.80;;;;;;;11.73;78.97;96861.13;1637851;86;21064;-78
2022/04/15 08:25:40;;;;;;;35.68;31.35;;;;;;;11.70;79.21;96863.58;1620751;86;21081;-78
2022/04/15 08:28:06;;;;;;;37.73;33.60;;;;;;;11.63;79.54;96867.08;1612929;88;21062;-78
2022/04/15 08:30:33;;;;;;;32.23;28.75;;;;;;;11.61;79.57;96870.34;1618083;88;21094;-78
2022/04/15 08:32:59;;;;;;;27.87;24.47;;;;;;;11.53;79.66;96869.91;1629506;88;21350;-78
2022/04/15 08:35:25;;;;;;;26.60;23.20;;;;;;;11.52;79.81;96871.39;1623220;86;20979;-78
2022/04/15 08:37:51;;;;;;;26.62;22.95;;;;;;;11.48;79.65;96868.33;1618803;86;21030;-79
2022/04/15 08:40:16;;;;;;;29.32;23.10;;;;;;;11.49;79.85;96873.05;1614786;88;21039;-79
2022/04/15 08:42:43;;;;;;;29.15;23.12;;;;;;;11.45;79.78;96873.89;1614338;88;21349;-79
2022/04/15 08:45:10;;;;;;;28.47;24.15;;;;;;;11.47;80.12;96876.31;1611367;88;20959;-79
2022/04/15 08:47:41;;;;;;;30.15;26.85;;;;;;;11.48;80.38;96881.84;1616109;86;21031;-78
2022/04/15 08:50:10;;;;;;;28.90;23.00;;;;;;;11.45;80.39;96877.80;1622225;86;20971;-79
2022/04/15 08:52:36;;;;;;;25.77;21.85;;;;;;;11.40;80.45;96881.42;1631763;88;21027;-79
2022/04/15 08:55:03;;;;;;;24.35;21.77;;;;;;;11.31;80.94;96885.86;1621894;88;21362;-79
2022/04/15 08:57:29;;;;;;;23.15;20.15;;;;;;;11.27;80.76;96884.59;1633332;86;21109;-79
2022/04/15 08:59:55;;;;;;;23.18;19.62;;;;;;;11.29;81.22;96883.13;1644641;86;21059;-79
2022/04/15 09:02:37;;;;;;;22.77;20.40;;;;;;;11.28;81.29;96888.01;1611980;88;20995;-79
2022/04/15 09:05:04;;;;;;;21.37;19.12;;;;;;;11.25;81.51;96883.97;1614393;86;21039;-79
2022/04/15 09:07:33;;;;;;;21.77;19.57;;;;;;;11.26;81.84;96885.58;1656737;86;21424;-79
2022/04/15 09:10:01;;;;;;;19.65;17.65;;;;;;;11.31;81.76;96890.26;1671503;85;21033;-79
2022/04/15 09:12:29;;;;;;;16.93;15.23;;;;;;;11.37;81.75;96885.65;1649833;86;21444;-79
2022/04/15 09:14:59;;;;;;;14.93;12.30;;;;;;;11.43;81.90;96888.38;1640073;87;21401;-79
2022/04/15 09:17:27;;;;;;;13.88;12.37;;;;;;;11.46;82.13;96874.70;1642758;87;21050;-79
2022/04/15 09:19:53;;;;;;;13.90;11.53;;;;;;;11.53;82.24;96870.40;1639533;85;20990;-79
2022/04/15 09:22:19;;;;;;;14.40;12.90;;;;;;;11.58;82.18;96874.12;1632226;85;21460;-79
2022/04/15 09:24:47;;;;;;;13.85;11.83;;;;;;;11.64;82.42;96873.41;1631085;87;20994;-79
2022/04/15 09:27:12;;;;;;;13.85;11.33;;;;;;;11.71;82.25;96873.49;1629736;85;21062;-78
2022/04/15 09:29:40;;;;;;;14.90;10.58;;;;;;;11.73;81.64;96874.16;1632110;85;21385;-79
2022/04/15 09:32:14;;;;;;;11.68;9.83;;;;;;;11.76;81.46;96871.19;1625511;87;21032;-79
2022/04/15 09:35:07;;;;;;;14.45;13.10;;;;;;;11.72;81.22;96864.23;1604478;87;20998;-79
2022/04/15 09:37:40;;;;;;;11.90;10.80;;;;;;;11.67;80.83;96867.03;1626237;85;21062;-79
2022/04/15 09:40:17;;;;;;;9.05;8.13;;;;;;;11.58;80.83;96872.01;1648936;85;20951;-78
2022/04/15 09:42:45;;;;;;;7.85;6.20;;;;;;;11.54;81.18;96878.52;1649625;87;21065;-79
2022/04/15 09:45:30;;;;;;;6.33;5.72;;;;;;;11.54;81.21;96879.33;1649381;87;21009;-79
2022/04/15 09:48:09;;;;;;;6.37;5.47;;;;;;;11.51;81.12;96875.78;1644146;87;21037;-78
2022/04/15 09:50:44;;;;;;;6.95;6.08;;;;;;;11.55;81.42;96877.08;1628915;85;21050;-79
2022/04/15 09:53:19;;;;;;;8.65;7.70;;;;;;;11.65;81.93;96883.32;1643281;85;20975;-79
2022/04/15 09:55:51;;;;;;;9.75;8.73;;;;;;;11.71;82.15;96875.63;1631447;85;21425;-79
2022/04/15 09:58:21;;;;;;;9.78;8.78;;;;;;;11.74;82.32;96875.77;1647937;87;21073;-78
2022/04/15 10:00:51;;;;;;;10.43;9.33;;;;;;;11.75;81.78;96879.18;1650147;87;21337;-79
2022/04/15 10:03:25;;;;;;;12.10;10.65;;;;;;;11.74;81.62;96884.88;1642920;85;21037;-79
2022/04/15 10:05:58;;;;;;;13.28;11.97;;;;;;;11.72;81.80;96875.95;1636911;86;21010;-79
2022/04/15 10:08:23;;;;;;;13.80;12.20;;;;;;;11.66;81.03;96879.23;1625364;86;21079;-80
2022/04/15 10:10:50;;;;;;;20.12;18.00;;;;;;;11.62;81.57;96875.37;1640102;87;21129;-78
2022/04/15 10:13:16;;;;;;;18.02;16.20;;;;;;;11.61;81.58;96880.76;1637686;86;20999;-78
2022/04/15 10:15:43;;;;;;;19.32;17.32;;;;;;;11.56;81.39;96883.90;1633112;87;21006;-78
2022/04/15 10:18:09;;;;;;;18.30;15.83;;;;;;;11.55;81.77;96881.44;1631564;87;21070;-78
2022/04/15 10:20:37;;;;;;;18.82;16.17;;;;;;;11.57;82.00;96882.91;1632768;87;20970;-79
2022/04/15 10:23:07;;;;;;;18.75;16.85;;;;;;;11.58;81.57;96881.92;1640416;86;21500;-79
2022/04/15 10:25:36;;;;;;;19.45;17.45;;;;;;;11.60;82.03;96880.44;1628532;86;20976;-79
2022/04/15 10:28:14;;;;;;;19.15;17.02;;;;;;;11.64;81.93;96886.91;1635193;86;21133;-79
2022/04/15 10:30:55;;;;;;;20.88;18.02;;;;;;;11.73;82.40;96887.98;1605653;87;21030;-79
2022/04/15 10:33:31;;;;;;;21.25;17.92;;;;;;;11.82;82.38;96880.11;1637198;86;21378;-78
2022/04/15 10:36:07;;;;;;;19.62;17.52;;;;;;;11.89;82.56;96877.13;1639909;86;21310;-79
2022/04/15 10:38:33;;;;;;;21.87;18.20;;;;;;;11.92;82.37;96874.97;1627525;86;21075;-78
2022/04/15 10:40:59;;;;;;;22.40;18.45;;;;;;;11.93;82.12;96871.38;1627021;86;21038;-79
2022/04/15 10:43:27;;;;;;;21.05;18.77;;;;;;;12.00;82.38;96876.67;1601404;87;21046;-79
2022/04/15 10:46:14;;;;;;;19.98;17.85;;;;;;;12.01;81.97;96871.28;1643848;86;21050;-79
2022/04/15 10:48:41;;;;;;;20.08;17.98;;;;;;;12.11;82.20;96864.52;1638772;86;21042;-78
2022/04/15 10:51:24;;;;;;;23.40;18.42;;;;;;;12.15;80.93;96864.97;1636659;87;20972;-78
2022/04/15 10:53:50;;;;;;;21.73;17.70;;;;;;;12.20;82.03;96860.02;1627168;86;20960;-79
2022/04/15 10:56:18;;;;;;;22.02;19.62;;;;;;;12.35;82.42;96849.59;1643102;86;21019;-79
2022/04/15 11:01:52;;;;;;;21.17;18.90;;;;;;;12.61;82.83;96849.42;1620429;87;21918;-78
2022/04/15 11:04:23;;;;;;;21.93;18.85;;;;;;;12.68;80.74;96840.37;1631753;87;21103;-79
2022/04/15 11:06:50;;;;;;;26.45;20.32;;;;;;;13.02;82.56;96837.64;1637463;86;21158;-79
2022/04/15 11:09:16;;;;;;;21.62;18.62;;;;;;;13.28;82.54;96841.02;1626233;87;21379;-78
2022/04/15 11:11:44;;;;;;;20.57;18.32;;;;;;;13.32;80.58;96842.25;1643625;86;21138;-78
2022/04/15 11:14:14;;;;;;;19.77;17.70;;;;;;;13.28;79.76;96846.23;1637428;86;20986;-78
2022/04/15 11:16:53;;;;;;;20.75;18.00;;;;;;;13.16;77.54;96844.58;1641498;86;20956;-78
2022/04/15 11:19:24;;;;;;;19.62;17.65;;;;;;;13.13;78.21;96850.17;1640385;86;20999;-78
2022/04/15 11:21:53;;;;;;;22.20;19.23;;;;;;;13.17;78.70;96841.78;1628115;87;21003;-78